Time;durP1;ratioP1;P1;durP2;ratioP2;P2;SDS_P1;SDS_P2;PMS_P1;PMS_P2;Temp;Humidity;BMP_temperature;BMP_pressure;BME280_temperature;BME280_humidity;BME280_pressure;Samples;Min_cycle;Max_cycle;Signal;HPM_P1;HPM_P2
2021/08/18 00:02:12;;;;;;;;;;;;;;;28.46;46.33;100295.34;5079253;28;982;-39
2021/08/18 00:04:38;;;;;;;;;;;;;;;28.04;48.26;100298.88;5079693;28;790;-39
2021/08/18 00:07:03;;;;;;;;;;;;;;;28.53;47.01;100295.34;5079120;28;843;-39
2021/08/18 00:09:29;;;;;;;;;;;;;;;28.48;47.19;100285.97;5079179;28;728;-39
2021/08/18 00:11:54;;;;;;;;;;;;;;;27.93;49.57;100286.75;5079453;28;807;-39
2021/08/18 00:14:19;;;;;;;;;;;;;;;28.56;47.01;100286.81;5079244;28;1961;-41
2021/08/18 00:16:46;;;;;;;;;;;;;;;28.28;48.09;100283.16;5083669;28;962;-41
2021/08/18 00:19:11;;;;;;;;;;;;;;;28.50;48.39;100291.16;5099393;28;827;-39
2021/08/18 00:21:36;;;;;;;;;;;;;;;25.16;53.52;100284.44;5099354;28;914;-39
2021/08/18 00:24:02;;;;;;;;;;;;;;;25.70;54.01;100288.00;5099372;28;965;-39
2021/08/18 00:26:27;;;;;;;;;;;;;;;27.45;48.52;100291.00;5099303;28;822;-39
2021/08/18 00:28:53;;;;;;;;;;;;;;;27.85;47.24;100295.88;5099017;28;817;-39
2021/08/18 00:31:18;;;;;;;;;;;;;;;27.51;49.82;100294.75;5097041;28;934;-39
2021/08/18 00:33:44;;;;;;;;;;;;;;;28.42;46.01;100300.31;5079167;28;1980;-41
2021/08/18 00:36:09;;;;;;;;;;;;;;;28.06;47.58;100309.50;5078756;28;744;-41
2021/08/18 00:38:34;;;;;;;;;;;;;;;28.58;46.84;100304.50;5078636;28;879;-39
2021/08/18 00:40:59;;;;;;;;;;;;;;;28.43;46.76;100298.41;5079078;28;767;-39
2021/08/18 00:43:25;;;;;;;;;;;;;;;27.90;49.17;100289.84;5077314;28;807;-40
2021/08/18 00:45:50;;;;;;;;;;;;;;;28.57;46.44;100294.75;5078297;28;792;-39
2021/08/18 00:48:15;;;;;;;;;;;;;;;28.25;47.79;100297.09;5078116;28;1261;-40
2021/08/18 00:50:41;;;;;;;;;;;;;;;28.39;48.20;100305.28;5078394;28;739;-39
2021/08/18 00:53:06;;;;;;;;;;;;;;;28.59;46.81;100308.88;5078163;28;1913;-41
2021/08/18 00:55:31;;;;;;;;;;;;;;;27.98;49.05;100305.06;5078834;28;797;-39
2021/08/18 00:57:57;;;;;;;;;;;;;;;24.34;56.38;100299.03;5078080;28;973;-40
2021/08/18 01:00:23;;;;;;;;;;;;;;;26.56;50.59;100296.59;5078047;28;860;-40
2021/08/18 01:02:48;;;;;;;;;;;;;;;26.90;50.92;100310.44;5078224;28;978;-41
2021/08/18 01:05:17;;;;;;;;;;;;;;;28.06;46.32;100306.78;5078234;28;744;-40
2021/08/18 01:07:43;;;;;;;;;;;;;;;27.91;47.43;100299.63;5078329;28;714;-39
2021/08/18 01:10:09;;;;;;;;;;;;;;;28.18;47.45;100298.91;5078382;28;734;-41
2021/08/18 01:12:34;;;;;;;;;;;;;;;28.46;46.24;100293.44;5078601;28;822;-39
2021/08/18 01:15:03;;;;;;;;;;;;;;;27.87;48.27;100290.25;5078285;28;1901;-38
2021/08/18 01:17:37;;;;;;;;;;;;;;;28.55;46.06;100299.50;5077177;28;966;-40
2021/08/18 01:20:03;;;;;;;;;;;;;;;28.39;46.66;100300.72;5078213;28;804;-38
2021/08/18 01:22:28;;;;;;;;;;;;;;;27.91;48.98;100304.22;5078129;28;712;-37
2021/08/18 01:24:54;;;;;;;;;;;;;;;28.55;46.41;100304.09;5077649;28;853;-40
2021/08/18 01:27:19;;;;;;;;;;;;;;;28.10;48.40;100298.06;5077718;28;795;-40
2021/08/18 01:29:45;;;;;;;;;;;;;;;28.64;46.57;100289.34;5077857;28;1533;-40
2021/08/18 01:32:10;;;;;;;;;;;;;;;28.39;47.32;100281.78;5075686;28;998;-39
2021/08/18 01:34:35;;;;;;;;;;;;;;;27.93;49.31;100284.03;5077998;28;1971;-40
2021/08/18 01:37:01;;;;;;;;;;;;;;;28.69;46.38;100286.88;5077751;28;772;-39
2021/08/18 01:39:26;;;;;;;;;;;;;;;28.31;48.03;100290.06;5077574;28;803;-41
2021/08/18 01:41:52;;;;;;;;;;;;;;;28.50;48.19;100295.75;5077649;28;835;-39
2021/08/18 01:44:17;;;;;;;;;;;;;;;25.06;53.30;100287.38;5077629;28;775;-41
2021/08/18 01:46:42;;;;;;;;;;;;;;;25.96;53.15;100293.97;5076807;28;962;-39
2021/08/18 01:49:08;;;;;;;;;;;;;;;27.46;47.97;100292.66;5077574;28;1132;-39
2021/08/18 01:51:34;;;;;;;;;;;;;;;27.91;46.87;100290.69;5077355;28;866;-39
2021/08/18 01:53:59;;;;;;;;;;;;;;;28.43;46.48;100288.44;5077378;28;1917;-42
2021/08/18 01:56:24;;;;;;;;;;;;;;;28.57;45.68;100293.91;5077327;28;752;-39
2021/08/18 01:58:49;;;;;;;;;;;;;;;28.21;47.01;100282.31;5077203;28;843;-41
2021/08/18 02:01:15;;;;;;;;;;;;;;;28.40;47.09;100288.84;5076604;28;963;-41
2021/08/18 02:03:40;;;;;;;;;;;;;;;28.46;46.47;100287.22;5077313;28;772;-39
2021/08/18 02:06:05;;;;;;;;;;;;;;;27.83;49.02;100275.47;5076602;28;791;-42
2021/08/18 02:08:31;;;;;;;;;;;;;;;28.65;46.14;100287.44;5076413;28;489;-39
2021/08/18 02:10:56;;;;;;;;;;;;;;;28.30;47.18;100283.78;5077186;28;894;-41
2021/08/18 02:13:21;;;;;;;;;;;;;;;28.26;48.25;100284.41;5076945;28;1906;-42
2021/08/18 02:15:47;;;;;;;;;;;;;;;28.59;46.69;100281.81;5076962;28;779;-39
2021/08/18 02:18:14;;;;;;;;;;;;;;;27.99;48.75;100277.03;5076895;28;955;-39
2021/08/18 02:20:40;;;;;;;;;;;;;;;28.71;46.21;100281.25;5076828;28;829;-40
2021/08/18 02:23:05;;;;;;;;;;;;;;;28.25;48.14;100286.28;5076941;28;751;-41
2021/08/18 02:25:30;;;;;;;;;;;;;;;28.32;48.62;100289.84;5077106;28;791;-41
2021/08/18 02:27:56;;;;;;;;;;;;;;;24.77;55.44;100283.53;5076879;28;770;-40
2021/08/18 02:30:22;;;;;;;;;;;;;;;26.40;52.68;100293.09;5076700;28;772;-40
2021/08/18 02:32:47;;;;;;;;;;;;;;;27.50;50.47;100293.09;5076569;28;993;-40
2021/08/18 02:35:13;;;;;;;;;;;;;;;28.10;47.86;100303.47;5076647;28;1897;-40
2021/08/18 02:37:38;;;;;;;;;;;;;;;27.74;49.65;100301.84;5076559;28;740;-41
2021/08/18 02:40:04;;;;;;;;;;;;;;;28.58;47.08;100296.41;5076660;28;842;-41
2021/08/18 02:42:29;;;;;;;;;;;;;;;28.34;47.88;100292.38;5076915;28;792;-41
2021/08/18 02:44:54;;;;;;;;;;;;;;;28.19;48.78;100287.09;5076296;28;821;-41
2021/08/18 02:47:20;;;;;;;;;;;;;;;28.69;47.20;100283.31;5076362;28;895;-41
2021/08/18 02:49:45;;;;;;;;;;;;;;;28.14;49.57;100267.94;5076894;28;1099;-40
2021/08/18 02:52:10;;;;;;;;;;;;;;;28.77;47.49;100269.59;5076545;28;716;-41
2021/08/18 02:54:35;;;;;;;;;;;;;;;28.56;48.20;100276.81;5076748;28;1909;-40
2021/08/18 02:57:01;;;;;;;;;;;;;;;28.43;49.16;100268.66;5076855;28;826;-40
2021/08/18 02:59:26;;;;;;;;;;;;;;;28.76;47.67;100273.31;5075999;28;906;-40
2021/08/18 03:01:51;;;;;;;;;;;;;;;28.22;49.54;100271.28;5076551;28;1022;-40
2021/08/18 03:04:17;;;;;;;;;;;;;;;24.84;58.15;100276.41;5077018;28;879;-40
2021/08/18 03:06:42;;;;;;;;;;;;;;;27.25;50.51;100278.19;5076443;28;760;-40
2021/08/18 03:09:07;;;;;;;;;;;;;;;27.41;51.05;100284.31;5076340;28;818;-40
2021/08/18 03:11:32;;;;;;;;;;;;;;;28.49;47.63;100281.41;5081566;28;1484;-42
2021/08/18 03:13:58;;;;;;;;;;;;;;;28.34;45.83;100289.69;5084958;28;1905;-41
2021/08/18 03:16:23;;;;;;;;;;;;;;;28.03;48.99;100294.50;5076734;28;1017;-37
2021/08/18 03:18:48;;;;;;;;;;;;;;;28.58;47.17;100292.84;5080499;28;827;-39
2021/08/18 03:21:13;;;;;;;;;;;;;;;27.57;48.58;100288.59;5080183;28;819;-34
2021/08/18 03:23:39;;;;;;;;;;;;;;;27.58;48.85;100294.81;5088597;28;1483;-37
2021/08/18 03:26:05;;;;;;;;;;;;;;;27.18;49.86;100296.19;5100562;28;799;-35
2021/08/18 03:28:30;;;;;;;;;;;;;;;26.81;52.21;100298.09;5100165;28;774;-34
2021/08/18 03:30:55;;;;;;;;;;;;;;;27.24;49.68;100292.69;5096284;28;1538;-36
2021/08/18 03:33:20;;;;;;;;;;;;;;;26.98;50.81;100294.13;5086009;28;1905;-42
2021/08/18 03:35:46;;;;;;;;;;;;;;;26.97;51.93;100288.91;5082740;28;1602;-39
2021/08/18 03:38:11;;;;;;;;;;;;;;;26.94;51.17;100294.69;5100336;28;849;-34
2021/08/18 03:40:36;;;;;;;;;;;;;;;26.59;53.02;100292.69;5100165;28;838;-38
2021/08/18 03:43:02;;;;;;;;;;;;;;;26.88;51.52;100291.75;5099286;28;803;-34
2021/08/18 03:45:27;;;;;;;;;;;;;;;26.48;52.43;100300.25;5096259;28;849;-37
2021/08/18 03:47:52;;;;;;;;;;;;;;;26.61;53.00;100291.47;5080039;28;1219;-35
2021/08/18 03:50:18;;;;;;;;;;;;;;;26.63;52.21;100291.25;5079420;28;775;-35
2021/08/18 03:52:43;;;;;;;;;;;;;;;26.65;52.57;100297.31;5079831;28;1511;-38
2021/08/18 03:55:09;;;;;;;;;;;;;;;26.92;51.91;100283.25;5087404;28;1967;-34
2021/08/18 03:57:34;;;;;;;;;;;;;;;26.81;52.19;100293.53;5079695;28;862;-39
2021/08/18 04:00:00;;;;;;;;;;;;;;;27.13;51.64;100296.78;5081631;28;780;-41
2021/08/18 04:02:25;;;;;;;;;;;;;;;27.25;50.66;100291.69;5099387;28;945;-34
2021/08/18 04:04:50;;;;;;;;;;;;;;;25.71;54.51;100295.06;5099657;28;728;-36
2021/08/18 04:07:16;;;;;;;;;;;;;;;25.47;55.86;100299.66;5099914;28;819;-36
2021/08/18 04:09:41;;;;;;;;;;;;;;;25.15;57.32;100301.59;5099910;28;794;-42
2021/08/18 04:12:06;;;;;;;;;;;;;;;26.67;50.86;100308.75;5100086;28;822;-36
2021/08/18 04:14:32;;;;;;;;;;;;;;;27.02;47.02;100298.16;5099895;28;1906;-35
2021/08/18 04:16:57;;;;;;;;;;;;;;;27.07;47.57;100300.25;5091434;28;878;-35
2021/08/18 04:19:22;;;;;;;;;;;;;;;27.00;49.60;100293.91;5079458;28;815;-35
2021/08/18 04:21:47;;;;;;;;;;;;;;;26.99;50.43;100298.47;5079136;28;748;-33
2021/08/18 04:24:13;;;;;;;;;;;;;;;27.01;46.95;100299.16;5079138;28;835;-39
2021/08/18 04:26:38;;;;;;;;;;;;;;;26.87;43.96;100306.28;5079410;28;814;-39
2021/08/18 04:29:03;;;;;;;;;;;;;;;26.99;48.32;100301.16;5078386;28;740;-38
2021/08/18 04:31:31;;;;;;;;;;;;;;;27.04;49.78;100316.00;5078853;28;970;-38
2021/08/18 04:33:57;;;;;;;;;;;;;;;25.31;55.87;100312.25;5079433;28;1960;-37
2021/08/18 04:36:22;;;;;;;;;;;;;;;25.29;56.72;100313.44;5078947;28;840;-37
2021/08/18 04:38:47;;;;;;;;;;;;;;;25.27;56.55;100318.16;5079482;28;1084;-35
2021/08/18 04:41:12;;;;;;;;;;;;;;;25.71;55.63;100322.00;5078738;28;859;-35
2021/08/18 04:43:41;;;;;;;;;;;;;;;25.39;57.26;100330.16;5078326;28;739;-36
2021/08/18 04:46:06;;;;;;;;;;;;;;;25.65;56.10;100325.44;5078921;28;740;-36
2021/08/18 04:48:32;;;;;;;;;;;;;;;25.96;55.73;100334.38;5098256;28;1304;-37
2021/08/18 04:50:57;;;;;;;;;;;;;;;25.90;55.48;100330.56;5098361;28;894;-36
2021/08/18 04:53:22;;;;;;;;;;;;;;;25.72;56.89;100333.63;5099151;28;1906;-37
2021/08/18 04:55:48;;;;;;;;;;;;;;;25.55;58.15;100331.06;5098704;28;846;-37
2021/08/18 04:58:13;;;;;;;;;;;;;;;24.71;61.00;100341.53;5097398;28;1271;-38
2021/08/18 05:00:38;;;;;;;;;;;;;;;26.16;52.42;100342.72;5098363;28;786;-38
2021/08/18 05:03:04;;;;;;;;;;;;;;;26.90;50.29;100342.81;5098180;28;965;-37
2021/08/18 05:05:29;;;;;;;;;;;;;;;27.13;48.85;100350.78;5098423;28;817;-38
2021/08/18 05:07:56;;;;;;;;;;;;;;;27.01;51.75;100350.44;5098434;28;730;-38
2021/08/18 05:10:22;;;;;;;;;;;;;;;27.38;47.40;100341.41;5098211;28;831;-36
2021/08/18 05:12:47;;;;;;;;;;;;;;;26.25;54.77;100341.63;5096673;28;1577;-37
2021/08/18 05:15:12;;;;;;;;;;;;;;;26.09;54.75;100348.03;5099126;28;1973;-38
2021/08/18 05:17:38;;;;;;;;;;;;;;;26.32;53.76;100352.50;5086167;28;962;-42
2021/08/18 05:20:05;;;;;;;;;;;;;;;26.58;52.40;100353.03;5077539;28;814;-34
2021/08/18 05:22:30;;;;;;;;;;;;;;;26.43;51.92;100351.22;5078552;28;704;-35
2021/08/18 05:25:00;;;;;;;;;;;;;;;26.34;53.48;100350.47;5077805;28;836;-36
2021/08/18 05:27:25;;;;;;;;;;;;;;;26.38;53.76;100359.03;5077659;28;823;-34
2021/08/18 05:29:51;;;;;;;;;;;;;;;26.43;52.94;100363.84;5078020;28;869;-35
2021/08/18 05:32:16;;;;;;;;;;;;;;;26.42;53.80;100373.81;5077575;28;935;-34
2021/08/18 05:34:41;;;;;;;;;;;;;;;26.18;54.73;100373.03;5077233;28;1959;-35
2021/08/18 05:37:06;;;;;;;;;;;;;;;26.46;53.53;100367.00;5077742;28;856;-39
2021/08/18 05:39:32;;;;;;;;;;;;;;;26.81;52.89;100368.28;5077664;28;791;-36
2021/08/18 05:41:57;;;;;;;;;;;;;;;26.40;53.64;100370.47;5076931;28;816;-45
2021/08/18 05:44:22;;;;;;;;;;;;;;;26.40;54.32;100374.00;5077737;28;800;-39
2021/08/18 05:46:48;;;;;;;;;;;;;;;26.31;54.09;100371.56;5077735;28;1087;-38
2021/08/18 05:49:20;;;;;;;;;;;;;;;26.32;54.57;100357.06;5077051;28;1095;-36
2021/08/18 05:51:45;;;;;;;;;;;;;;;26.92;51.50;100361.53;5077675;28;814;-35
2021/08/18 05:54:11;;;;;;;;;;;;;;;26.95;50.56;100353.03;5077727;28;1906;-40
2021/08/18 05:56:36;;;;;;;;;;;;;;;27.07;49.81;100359.66;5077108;28;815;-35
2021/08/18 05:59:01;;;;;;;;;;;;;;;27.13;49.39;100363.44;5079019;28;811;-41
2021/08/18 06:01:27;;;;;;;;;;;;;;;27.31;49.14;100365.66;5077581;28;883;-36
2021/08/18 06:03:52;;;;;;;;;;;;;;;27.48;48.49;100360.84;5077054;28;764;-35
2021/08/18 06:06:17;;;;;;;;;;;;;;;27.50;46.54;100358.78;5077528;28;779;-39
2021/08/18 06:08:42;;;;;;;;;;;;;;;26.32;49.24;100360.59;5077240;28;759;-36
2021/08/18 06:11:08;;;;;;;;;;;;;;;27.16;47.14;100354.94;5076649;28;824;-35
2021/08/18 06:13:33;;;;;;;;;;;;;;;27.64;45.74;100353.50;5077048;28;1962;-36
2021/08/18 06:15:58;;;;;;;;;;;;;;;27.39;47.61;100351.22;5077063;28;835;-36
2021/08/18 06:18:24;;;;;;;;;;;;;;;27.76;44.10;100345.69;5076979;28;942;-36
2021/08/18 06:20:49;;;;;;;;;;;;;;;28.04;43.85;100349.41;5076877;28;771;-37
2021/08/18 06:23:20;;;;;;;;;;;;;;;28.13;43.52;100345.50;5076946;28;804;-36
2021/08/18 06:25:45;;;;;;;;;;;;;;;28.03;43.35;100353.97;5076605;28;845;-36
2021/08/18 06:28:10;;;;;;;;;;;;;;;28.16;43.32;100353.22;5076811;28;799;-36
2021/08/18 06:30:35;;;;;;;;;;;;;;;28.24;43.17;100358.44;5076498;28;680;-36
2021/08/18 06:33:01;;;;;;;;;;;;;;;28.17;43.31;100356.75;5076635;28;951;-37
2021/08/18 06:35:26;;;;;;;;;;;;;;;28.09;42.93;100360.47;5076023;28;1959;-38
2021/08/18 06:37:51;;;;;;;;;;;;;;;28.18;42.85;100356.56;5076662;28;763;-34
2021/08/18 06:40:17;;;;;;;;;;;;;;;28.33;43.06;100352.91;5076854;28;835;-34
2021/08/18 06:42:44;;;;;;;;;;;;;;;28.23;42.80;100356.78;5076353;28;808;-34
2021/08/18 06:45:10;;;;;;;;;;;;;;;28.16;42.71;100352.41;5076367;28;823;-38
2021/08/18 06:47:36;;;;;;;;;;;;;;;28.29;42.69;100352.47;5075991;28;1081;-36
2021/08/18 06:50:01;;;;;;;;;;;;;;;28.42;42.51;100358.97;5076565;28;775;-35
2021/08/18 06:52:28;;;;;;;;;;;;;;;28.35;42.23;100340.03;5076300;28;834;-38
2021/08/18 06:54:54;;;;;;;;;;;;;;;28.18;42.21;100342.19;5076646;28;1977;-41
2021/08/18 06:57:19;;;;;;;;;;;;;;;28.19;42.14;100341.16;5076305;28;756;-41
2021/08/18 06:59:44;;;;;;;;;;;;;;;28.35;42.23;100331.91;5076592;28;839;-36
2021/08/18 07:02:10;;;;;;;;;;;;;;;28.35;42.45;100334.59;5076394;28;1033;-37
2021/08/18 07:04:35;;;;;;;;;;;;;;;28.36;42.01;100333.59;5075939;28;796;-35
2021/08/18 07:07:00;;;;;;;;;;;;;;;28.27;41.63;100341.00;5076577;28;779;-41
2021/08/18 07:09:25;;;;;;;;;;;;;;;28.35;41.48;100342.72;5076595;28;783;-35
2021/08/18 07:11:51;;;;;;;;;;;;;;;28.41;41.06;100338.38;5076006;28;787;-36
2021/08/18 07:14:16;;;;;;;;;;;;;;;28.46;42.41;100334.03;5076171;28;1973;-36
2021/08/18 07:16:41;;;;;;;;;;;;;;;28.62;42.30;100331.16;5076095;28;951;-41
2021/08/18 07:19:07;;;;;;;;;;;;;;;28.65;42.43;100338.88;5075867;28;795;-36
2021/08/18 07:21:33;;;;;;;;;;;;;;;28.58;42.16;100336.13;5076468;28;775;-35
2021/08/18 07:23:58;;;;;;;;;;;;;;;28.54;41.81;100340.31;5076262;28;810;-37
2021/08/18 07:26:27;;;;;;;;;;;;;;;28.42;41.78;100340.03;5076113;28;791;-36
2021/08/18 07:28:54;;;;;;;;;;;;;;;28.56;41.11;100340.94;5076053;28;779;-37
2021/08/18 07:31:19;;;;;;;;;;;;;;;28.43;41.30;100342.56;5075641;28;978;-37
2021/08/18 07:33:44;;;;;;;;;;;;;;;28.67;41.43;100337.66;5075756;28;1951;-33
2021/08/18 07:36:10;;;;;;;;;;;;;;;28.83;41.67;100339.13;5075274;28;985;-38
2021/08/18 07:38:35;;;;;;;;;;;;;;;28.87;42.03;100336.84;5076103;28;783;-39
2021/08/18 07:41:00;;;;;;;;;;;;;;;28.92;40.74;100344.34;5076014;28;791;-38
2021/08/18 07:43:26;;;;;;;;;;;;;;;28.55;39.33;100337.41;5076173;28;786;-37
2021/08/18 07:45:51;;;;;;;;;;;;;;;28.54;39.18;100343.00;5076044;28;825;-41
2021/08/18 07:48:16;;;;;;;;;;;;;;;28.82;40.42;100347.47;5075650;28;1267;-38
2021/08/18 07:50:41;;;;;;;;;;;;;;;28.88;40.67;100349.34;5076103;28;732;-40
2021/08/18 07:53:07;;;;;;;;;;;;;;;28.99;39.94;100344.41;5075915;28;759;-39
2021/08/18 07:55:32;;;;;;;;;;;;;;;29.00;40.11;100346.06;5093387;28;2276;-42
2021/08/18 07:57:57;;;;;;;;;;;;;;;29.06;39.71;100345.25;5096360;28;756;-41
2021/08/18 08:00:23;;;;;;;;;;;;;;;29.07;40.62;100344.22;5096069;28;875;-41
2021/08/18 08:02:48;;;;;;;;;;;;;;;29.07;41.11;100350.47;5095063;28;1001;-40
2021/08/18 08:05:14;;;;;;;;;;;;;;;29.15;40.88;100351.28;5099625;28;835;-40
2021/08/18 08:07:39;;;;;;;;;;;;;;;29.14;40.41;100355.91;5099517;28;839;-39
2021/08/18 08:10:06;;;;;;;;;;;;;;;29.11;40.43;100360.88;5099585;28;763;-39
2021/08/18 08:12:31;;;;;;;;;;;;;;;29.09;40.12;100353.78;5099604;28;798;-40
2021/08/18 08:14:56;;;;;;;;;;;;;;;29.11;40.00;100348.19;5099351;28;1922;-39
2021/08/18 08:17:22;;;;;;;;;;;;;;;29.09;40.14;100347.56;5098522;28;1013;-41
2021/08/18 08:19:47;;;;;;;;;;;;;;;29.18;40.65;100350.88;5099669;28;755;-40
2021/08/18 08:22:12;;;;;;;;;;;;;;;29.27;40.28;100348.81;5099016;28;905;-36
2021/08/18 08:24:38;;;;;;;;;;;;;;;29.18;39.74;100348.16;5099468;28;728;-42
2021/08/18 08:27:03;;;;;;;;;;;;;;;29.08;39.38;100345.88;5099691;28;800;-36
2021/08/18 08:29:28;;;;;;;;;;;;;;;29.17;39.29;100344.66;5099068;28;732;-42
2021/08/18 08:31:53;;;;;;;;;;;;;;;29.14;39.52;100346.94;5098553;28;918;-35
2021/08/18 08:34:19;;;;;;;;;;;;;;;29.13;39.71;100337.97;5098864;28;1961;-36
2021/08/18 08:36:44;;;;;;;;;;;;;;;29.09;40.85;100340.25;5099066;28;834;-35
2021/08/18 08:39:10;;;;;;;;;;;;;;;28.99;42.22;100341.69;5099029;28;726;-41
2021/08/18 08:41:36;;;;;;;;;;;;;;;29.23;41.07;100342.16;5099156;28;836;-36
2021/08/18 08:44:01;;;;;;;;;;;;;;;29.35;40.53;100326.94;5099169;28;843;-39
2021/08/18 08:46:26;;;;;;;;;;;;;;;29.30;40.08;100334.84;5094683;28;945;-36
2021/08/18 08:48:51;;;;;;;;;;;;;;;29.25;40.40;100340.88;5077288;28;1166;-35
2021/08/18 08:51:17;;;;;;;;;;;;;;;29.18;41.37;100338.16;5078649;28;736;-36
2021/08/18 08:53:42;;;;;;;;;;;;;;;29.35;39.83;100337.75;5078636;28;1914;-35
2021/08/18 08:56:07;;;;;;;;;;;;;;;29.20;41.10;100337.97;5078391;28;752;-47
2021/08/18 08:58:33;;;;;;;;;;;;;;;29.37;40.22;100332.97;5078469;28;764;-35
2021/08/18 09:00:58;;;;;;;;;;;;;;;29.38;40.53;100333.81;5078199;28;971;-44
2021/08/18 09:03:24;;;;;;;;;;;;;;;29.56;40.59;100325.06;5077810;28;974;-36
2021/08/18 09:05:49;;;;;;;;;;;;;;;29.46;41.41;100326.28;5078393;28;767;-39
2021/08/18 09:08:24;;;;;;;;;;;;;;;29.45;43.85;100331.94;5078522;28;736;-37
2021/08/18 09:11:08;;;;;;;;;;;;;;;29.56;40.41;100331.28;5078274;28;775;-43
2021/08/18 09:13:53;;;;;;;;;;;;;;;29.42;40.66;100322.34;5078033;28;1977;-36
2021/08/18 09:16:22;;;;;;;;;;;;;;;29.32;40.85;100325.47;5077800;28;991;-35
2021/08/18 09:18:49;;;;;;;;;;;;;;;29.49;40.27;100321.50;5076066;28;1357;-43
2021/08/18 09:21:36;;;;;;;;;;;;;;;29.57;39.99;100324.84;5078128;28;811;-38
2021/08/18 09:24:17;;;;;;;;;;;;;;;28.94;45.52;100321.47;5077276;28;820;-40
2021/08/18 09:26:53;;;;;;;;;;;;;;;29.27;43.00;100316.28;5077897;28;870;-46
2021/08/18 09:29:28;;;;;;;;;;;;;;;29.54;41.97;100316.28;5078362;28;743;-37
2021/08/18 09:31:53;;;;;;;;;;;;;;;29.34;44.86;100323.38;5077504;28;979;-35
2021/08/18 09:34:18;;;;;;;;;;;;;;;29.57;41.51;100315.88;5077962;28;1967;-44
2021/08/18 09:36:44;;;;;;;;;;;;;;;29.48;40.47;100317.13;5077974;28;764;-35
2021/08/18 09:39:22;;;;;;;;;;;;;;;29.62;40.02;100316.09;5077108;28;744;-43
2021/08/18 09:41:47;;;;;;;;;;;;;;;29.51;40.81;100314.00;5077900;28;854;-35
2021/08/18 09:44:12;;;;;;;;;;;;;;;29.68;39.97;100311.69;5077726;28;775;-39
2021/08/18 09:46:38;;;;;;;;;;;;;;;29.73;40.06;100317.31;5076865;28;958;-35
2021/08/18 09:49:10;;;;;;;;;;;;;;;29.56;40.15;100312.31;5077566;28;1055;-42
2021/08/18 09:51:35;;;;;;;;;;;;;;;29.58;39.92;100314.81;5077401;28;985;-41
2021/08/18 09:54:16;;;;;;;;;;;;;;;29.54;39.52;100305.44;5077067;28;1905;-47
2021/08/18 09:56:45;;;;;;;;;;;;;;;29.56;39.26;100309.59;5077404;28;823;-40
2021/08/18 09:59:10;;;;;;;;;;;;;;;29.52;39.48;100308.38;5077435;28;833;-50
2021/08/18 10:01:35;;;;;;;;;;;;;;;29.52;39.43;100302.13;5075791;28;967;-40
2021/08/18 10:04:01;;;;;;;;;;;;;;;29.54;39.69;100306.28;5077123;28;894;-39
2021/08/18 10:06:26;;;;;;;;;;;;;;;29.56;39.86;100306.09;5077017;28;736;-40
2021/08/18 10:08:54;;;;;;;;;;;;;;;29.49;39.70;100297.97;5077126;28;835;-40
2021/08/18 10:11:20;;;;;;;;;;;;;;;29.55;38.80;100305.25;5077237;28;763;-47
2021/08/18 10:13:46;;;;;;;;;;;;;;;29.46;38.63;100301.09;5076938;28;1905;-47
2021/08/18 10:16:13;;;;;;;;;;;;;;;29.43;38.51;100298.78;5075786;28;919;-40
2021/08/18 10:18:39;;;;;;;;;;;;;;;29.40;38.52;100296.50;5077102;28;799;-43
2021/08/18 10:21:06;;;;;;;;;;;;;;;29.38;38.55;100298.59;5075447;28;800;-40
2021/08/18 10:23:51;;;;;;;;;;;;;;;29.43;38.96;100305.03;5076810;28;822;-48
2021/08/18 10:26:46;;;;;;;;;;;;;;;29.43;39.31;100290.66;5075857;28;827;-46
2021/08/18 10:29:19;;;;;;;;;;;;;;;29.35;38.89;100294.41;5058954;28;1178;-40
2021/08/18 10:31:48;;;;;;;;;;;;;;;29.36;38.64;100287.97;5076459;28;970;-41
2021/08/18 10:34:22;;;;;;;;;;;;;;;29.36;38.74;100289.84;5076615;28;1897;-40
2021/08/18 10:36:57;;;;;;;;;;;;;;;29.37;38.49;100295.03;5076557;28;825;-45
2021/08/18 10:39:22;;;;;;;;;;;;;;;29.32;38.78;100294.84;5076776;28;904;-39
2021/08/18 10:42:06;;;;;;;;;;;;;;;29.35;39.38;100299.84;5076224;28;831;-39
2021/08/18 10:44:37;;;;;;;;;;;;;;;29.42;39.32;100300.69;5076916;28;859;-40
2021/08/18 10:47:18;;;;;;;;;;;;;;;29.41;38.47;100296.28;5076000;28;1093;-40
2021/08/18 10:49:43;;;;;;;;;;;;;;;29.36;37.60;100287.13;5076556;28;1278;-39
2021/08/18 10:52:08;;;;;;;;;;;;;;;29.30;37.88;100286.09;5076737;28;851;-41
2021/08/18 10:54:34;;;;;;;;;;;;;;;29.26;38.13;100288.38;5076040;28;1914;-35
2021/08/18 10:56:59;;;;;;;;;;;;;;;29.34;37.87;100287.34;5076499;28;747;-43
2021/08/18 10:59:37;;;;;;;;;;;;;;;29.29;38.00;100287.13;5076644;28;934;-40
2021/08/18 11:02:02;;;;;;;;;;;;;;;29.28;38.28;100283.59;5076055;28;997;-38
2021/08/18 11:04:46;;;;;;;;;;;;;;;29.31;38.92;100287.75;5076664;28;775;-38
2021/08/18 11:07:12;;;;;;;;;;;;;;;29.42;39.06;100284.41;5075939;28;791;-43
2021/08/18 11:09:46;;;;;;;;;;;;;;;29.49;38.18;100280.84;5075979;28;780;-38
2021/08/18 11:12:30;;;;;;;;;;;;;;;29.25;37.77;100278.59;5076523;28;875;-37
2021/08/18 11:14:56;;;;;;;;;;;;;;;29.30;37.67;100281.50;5075947;28;1901;-39
2021/08/18 11:17:24;;;;;;;;;;;;;;;29.32;37.75;100276.72;5075793;28;950;-36
2021/08/18 11:19:50;;;;;;;;;;;;;;;29.34;37.93;100273.78;5075253;28;748;-41
2021/08/18 11:22:15;;;;;;;;;;;;;;;29.34;38.01;100271.91;5075720;28;878;-37
2021/08/18 11:24:40;;;;;;;;;;;;;;;29.34;38.28;100269.19;5075045;28;740;-37
2021/08/18 11:27:05;;;;;;;;;;;;;;;29.39;39.12;100265.88;5076335;28;851;-37
2021/08/18 11:29:33;;;;;;;;;;;;;;;29.39;38.93;100263.16;5075943;28;767;-37
2021/08/18 11:32:04;;;;;;;;;;;;;;;29.39;37.96;100260.47;5074532;28;935;-36
2021/08/18 11:34:31;;;;;;;;;;;;;;;29.34;37.35;100254.84;5074500;28;1902;-37
2021/08/18 11:37:03;;;;;;;;;;;;;;;29.38;37.29;100257.97;5076134;28;797;-37
2021/08/18 11:39:34;;;;;;;;;;;;;;;29.33;37.32;100251.28;5078209;28;835;-37
2021/08/18 11:41:59;;;;;;;;;;;;;;;29.39;37.61;100252.34;5079850;28;843;-37
2021/08/18 11:44:28;;;;;;;;;;;;;;;29.39;37.67;100249.63;5079740;28;807;-37
2021/08/18 11:46:56;;;;;;;;;;;;;;;29.36;37.72;100255.47;5079436;28;927;-39
2021/08/18 11:49:22;;;;;;;;;;;;;;;29.33;38.63;100248.56;5079901;28;1417;-46
2021/08/18 11:51:48;;;;;;;;;;;;;;;29.44;38.00;100238.97;5079472;28;763;-42
2021/08/18 11:54:14;;;;;;;;;;;;;;;29.33;37.16;100243.16;5079914;28;1910;-41
2021/08/18 11:56:39;;;;;;;;;;;;;;;29.33;36.34;100236.91;5079850;28;799;-42
2021/08/18 11:59:06;;;;;;;;;;;;;;;29.24;36.95;100236.31;5078984;28;736;-42
2021/08/18 12:01:31;;;;;;;;;;;;;;;29.24;36.77;100232.75;5079252;28;978;-41
2021/08/18 12:03:57;;;;;;;;;;;;;;;29.31;36.86;100226.28;5079463;28;843;-41
2021/08/18 12:06:29;;;;;;;;;;;;;;;29.25;37.09;100229.81;5079407;28;819;-41
2021/08/18 12:08:55;;;;;;;;;;;;;;;29.25;37.33;100229.00;5079445;28;819;-41
2021/08/18 12:11:22;;;;;;;;;;;;;;;29.36;37.20;100219.41;5078139;28;863;-41
2021/08/18 12:13:48;;;;;;;;;;;;;;;29.39;37.72;100221.69;5077739;28;1913;-40
2021/08/18 12:16:23;;;;;;;;;;;;;;;29.36;36.80;100217.53;5079403;28;997;-41
2021/08/18 12:18:51;;;;;;;;;;;;;;;29.31;36.44;100212.72;5078909;28;803;-41
2021/08/18 12:21:26;;;;;;;;;;;;;;;29.31;36.30;100207.31;5079300;28;787;-41
2021/08/18 12:23:55;;;;;;;;;;;;;;;29.28;36.53;100206.91;5079550;28;795;-45
2021/08/18 12:26:30;;;;;;;;;;;;;;;29.23;36.61;100201.31;5079035;28;877;-39
2021/08/18 12:28:56;;;;;;;;;;;;;;;29.20;36.70;100203.38;5078841;28;752;-39
2021/08/18 12:31:21;;;;;;;;;;;;;;;29.25;37.07;100202.75;5079348;28;939;-43
2021/08/18 12:34:05;;;;;;;;;;;;;;;29.26;37.22;100196.28;5078919;28;1985;-39
2021/08/18 12:36:30;;;;;;;;;;;;;;;29.27;37.23;100192.53;5078958;28;728;-47
2021/08/18 12:38:55;;;;;;;;;;;;;;;29.28;36.28;100182.53;5079184;28;847;-40
2021/08/18 12:41:24;;;;;;;;;;;;;;;29.24;36.29;100184.84;5079162;28;946;-45
2021/08/18 12:44:02;;;;;;;;;;;;;;;29.17;36.47;100182.13;5079115;28;827;-46
2021/08/18 12:46:27;;;;;;;;;;;;;;;29.24;36.43;100179.41;5078722;28;994;-42
2021/08/18 12:48:52;;;;;;;;;;;;;;;29.17;36.93;100171.31;5076745;28;1221;-43
2021/08/18 12:51:17;;;;;;;;;;;;;;;29.19;37.11;100171.94;5077076;28;764;-44
2021/08/18 12:53:43;;;;;;;;;;;;;;;29.24;37.30;100175.88;5078710;28;1910;-46